地図

経路データ

SID SEASON NUMBER BASIN SUBBASIN NAME ISO_TIME NATURE LAT LON WMO_WIND WMO_PRES WMO_AGENCY TRACK_TYPE DIST2LAND LANDFALL IFLAG USA_AGENCY USA_ATCF_ID USA_LAT USA_LON USA_RECORD USA_STATUS USA_WIND USA_PRES USA_SSHS USA_R34_NE USA_R34_SE USA_R34_SW USA_R34_NW USA_R50_NE USA_R50_SE USA_R50_SW USA_R50_NW USA_R64_NE USA_R64_SE USA_R64_SW USA_R64_NW USA_POCI USA_ROCI USA_RMW USA_EYE TOKYO_LAT TOKYO_LON TOKYO_GRADE TOKYO_WIND TOKYO_PRES TOKYO_R50_DIR TOKYO_R50_LONG TOKYO_R50_SHORT TOKYO_R30_DIR TOKYO_R30_LONG TOKYO_R30_SHORT TOKYO_LAND CMA_LAT CMA_LON CMA_CAT CMA_WIND CMA_PRES HKO_LAT HKO_LON HKO_CAT HKO_WIND HKO_PRES NEWDELHI_LAT NEWDELHI_LON NEWDELHI_GRADE NEWDELHI_WIND NEWDELHI_PRES NEWDELHI_CI NEWDELHI_DP NEWDELHI_POCI REUNION_LAT REUNION_LON REUNION_TYPE REUNION_WIND REUNION_PRES REUNION_TNUM REUNION_CI REUNION_RMW REUNION_R34_NE REUNION_R34_SE REUNION_R34_SW REUNION_R34_NW REUNION_R50_NE REUNION_R50_SE REUNION_R50_SW REUNION_R50_NW REUNION_R64_NE REUNION_R64_SE REUNION_R64_SW REUNION_R64_NW BOM_LAT BOM_LON BOM_TYPE BOM_WIND BOM_PRES BOM_TNUM BOM_CI BOM_RMW BOM_R34_NE BOM_R34_SE BOM_R34_SW BOM_R34_NW BOM_R50_NE BOM_R50_SE BOM_R50_SW BOM_R50_NW BOM_R64_NE BOM_R64_SE BOM_R64_SW BOM_R64_NW BOM_ROCI BOM_POCI BOM_EYE BOM_POS_METHOD BOM_PRES_METHOD NADI_LAT NADI_LON NADI_CAT NADI_WIND NADI_PRES WELLINGTON_LAT WELLINGTON_LON WELLINGTON_WIND WELLINGTON_PRES DS824_LAT DS824_LON DS824_STAGE DS824_WIND DS824_PRES TD9636_LAT TD9636_LON TD9636_STAGE TD9636_WIND TD9636_PRES TD9635_LAT TD9635_LON TD9635_WIND TD9635_PRES TD9635_ROCI NEUMANN_LAT NEUMANN_LON NEUMANN_CLASS NEUMANN_WIND NEUMANN_PRES MLC_LAT MLC_LON MLC_CLASS MLC_WIND MLC_PRES USA_GUST BOM_GUST BOM_GUST_PER REUNION_GUST REUNION_GUST_PER USA_SEAHGT USA_SEARAD_NE USA_SEARAD_SE USA_SEARAD_SW USA_SEARAD_NW STORM_SPEED STORM_DIR
1931087S16115 1931 15 SI WA NOT_NAMED 1931-03-27 23:00:00 NR -16.1000 115.000 main 534 520 __________O___ -1 -16.1000 115.000 7 13 129
1931087S16115 1931 15 SI WA NOT_NAMED 1931-03-28 00:00:00 NR -16.2322 115.169 main 517 506 __________P___ -1 -16.2322 115.169 7 9 126
1931087S16115 1931 15 SI WA NOT_NAMED 1931-03-28 01:00:00 NR -16.2736 115.254 bom main 503 475 ______O___P___ -1 -16.0000 115.000 -16.3647 115.338 7 9 125
1931087S16115 1931 15 SI WA NOT_NAMED 1931-03-28 03:00:00 NR -16.4919 115.559 main 473 431 ______P___P___ -1 -16.2111 115.329 -16.6324 115.673 7 11 127
1931087S16115 1931 15 SI WA NOT_NAMED 1931-03-28 06:00:00 NR -16.8312 116.013 main 431 381 ______P___P___ -1 -16.5439 115.815 -17.0466 116.161 7 11 130
1931087S16115 1931 15 SI WA NOT_NAMED 1931-03-28 09:00:00 NR -17.2031 116.449 main 381 346 ______P___P___ -1 -16.9197 116.279 -17.4866 116.619 7 12 134
1931087S16115 1931 15 SI WA NOT_NAMED 1931-03-28 11:00:00 NR -17.5036 116.735 main 346 335 ______P___O___ -1 -17.2073 116.570 -17.8000 116.900 7 12 139
1931087S16115 1931 15 SI WA NOT_NAMED 1931-03-28 12:00:00 NR -17.6645 116.870 main 324 263 ______P___P___ -1 -17.3652 116.708 -17.9639 117.032 7 13 145
1931087S16115 1931 15 SI WA NOT_NAMED 1931-03-28 15:00:00 NR -18.1931 117.240 main 263 189 ______P___P___ -1 -17.9073 117.086 -18.4788 117.393 7 13 150
1931087S16115 1931 15 SI WA NOT_NAMED 1931-03-28 18:00:00 NR -18.7936 117.552 main 186 116 ______P___P___ -1 -18.5730 117.402 -19.0141 117.702 7 14 157
1931087S16115 1931 15 SI WA NOT_NAMED 1931-03-28 21:00:00 NR -19.4702 117.799 main 105 81 ______P___P___ -1 -19.3896 117.640 -19.5508 117.958 7 15 162
1931087S16115 1931 15 SI WA NOT_NAMED 1931-03-28 22:00:00 NR -19.7134 117.866 bom main 81 59 ______O___P___ -1 -19.7000 117.700 -19.7267 118.032 7 15 166
1931087S16115 1931 15 SI WA NOT_NAMED 1931-03-28 23:00:00 NR -19.9626 117.924 main 49 24 ______P___O___ -1 -20.0253 117.749 -19.9000 118.100 7 15 167
1931087S16115 1931 15 SI WA NOT_NAMED 1931-03-29 00:00:00 NR -20.1972 117.979 main 24 10 ______P___P___ -1 -20.3368 117.783 -20.0576 118.175 7 14 168
1931087S16115 1931 15 SI WA NOT_NAMED 1931-03-29 01:00:00 NR -20.4061 118.022 bom main 10 0 ______O___P___ -1 -20.6000 117.800 -20.2122 118.245 7 12 170
1931087S16115 1931 15 SI WA NOT_NAMED 1931-03-29 02:00:00 NR -20.5824 118.054 965 bom main 0 0 ______O___P___ -1 -20.8000 117.800 965 4 -20.3648 118.308 7 11 170
1931087S16115 1931 15 SI WA NOT_NAMED 1931-03-29 03:00:00 NR -20.7499 118.081 main 0 0 ______P___P___ -1 -20.9835 117.797 -20.5163 118.366 7 10 172
1931087S16115 1931 15 SI WA NOT_NAMED 1931-03-29 06:00:00 NR -21.2399 118.149 main 0 0 ______P___P___ -1 -21.5063 117.797 -20.9735 118.502 7 10 174
1931087S16115 1931 15 SI WA NOT_NAMED 1931-03-29 09:00:00 NR -21.7231 118.195 main 0 0 ______P___P___ -1 -21.9920 117.809 -21.4542 118.581 7 10 176
1931087S16115 1931 15 SI WA NOT_NAMED 1931-03-29 11:00:00 NR -22.0491 118.211 main 0 0 ______P___O___ -1 -22.2982 117.823 -21.8000 118.600 7 10 181
1931087S16115 1931 15 SI WA NOT_NAMED 1931-03-29 12:00:00 NR -22.2204 118.195 main 0 0 ______P___P___ -1 -22.4467 117.831 -21.9940 118.558 7 11 187
1931087S16115 1931 15 SI WA NOT_NAMED 1931-03-29 15:00:00 NR -22.7438 118.116 main 0 0 ______P___P___ -1 -22.8761 117.862 -22.6114 118.369 7 11 187
1931087S16115 1931 15 SI WA NOT_NAMED 1931-03-29 18:00:00 NR -23.2709 118.045 main 0 0 ______P___P___ -1 -23.2861 117.899 -23.2557 118.192 7 11 183
1931087S16115 1931 15 SI WA NOT_NAMED 1931-03-29 21:00:00 NR -23.7883 118.052 main 0 0 ______P___P___ -1 -23.6825 117.940 -23.8941 118.165 7 11 173
1931087S16115 1931 15 SI WA NOT_NAMED 1931-03-29 23:00:00 NR -24.1466 118.159 main 0 0 ______P___O___ -1 -23.9421 117.970 -24.3000 118.300 7 12 159
1931087S16115 1931 15 SI WA NOT_NAMED 1931-03-30 00:00:00 NR -24.3659 118.291 main 0 0 ______P___P___ -1 -24.0712 117.985 -24.5132 118.444 7 17 147
1931087S16115 1931 15 SI WA NOT_NAMED 1931-03-30 01:00:00 NR -24.6202 118.499 bom main 0 0 ______O___P___ -1 -24.2000 118.000 -24.7253 118.624 7 21 137
1931087S16115 1931 15 SI WA NOT_NAMED 1931-03-30 03:00:00 NR -25.1373 119.077 main 0 0 __________P___ -1 -25.1373 119.077 7 20 129
1931087S16115 1931 15 SI WA NOT_NAMED 1931-03-30 06:00:00 NR -25.6916 119.948 main 0 0 __________P___ -1 -25.6916 119.948 7 20 120
1931087S16115 1931 15 SI WA NOT_NAMED 1931-03-30 09:00:00 NR -26.1168 120.974 main 0 0 __________P___ -1 -26.1168 120.974 7 20 111
1931087S16115 1931 15 SI WA NOT_NAMED 1931-03-30 11:00:00 NR -26.3000 121.700 main 0 0 __________O___ -1 -26.3000 121.700 7 20 104
1931087S16115 1931 15 SI WA NOT_NAMED 1931-03-30 12:00:00 NR -26.3560 122.067 main 0 0 __________P___ -1 -26.3560 122.067 7 20 94
1931087S16115 1931 15 SI WA NOT_NAMED 1931-03-30 15:00:00 NR -26.3946 123.169 main 0 0 __________P___ -1 -26.3946 123.169 7 20 88
1931087S16115 1931 15 SI WA NOT_NAMED 1931-03-30 18:00:00 NR -26.2810 124.271 main 0 0 __________P___ -1 -26.2810 124.271 7 20 81
1931087S16115 1931 15 SI WA NOT_NAMED 1931-03-30 21:00:00 NR -26.0691 125.370 main 0 0 __________P___ -1 -26.0691 125.370 7 20 77
1931087S16115 1931 15 SI WA NOT_NAMED 1931-03-30 23:00:00 NR -25.9000 126.100 main 0 __________O___ -1 -25.9000 126.100 7 20 76

IBTrACS Databaseについて

本データベースは、米国NOAAが公開する1842年以降の世界の熱帯低気圧のベストトラックデータアーカイブInternational Best Track Archive for Climate Stewardship (IBTrACS)を、ウェブで閲覧しやすい形式に変換したものです。

最終更新日:2021-11-26